Time;durP1;ratioP1;P1;durP2;ratioP2;P2;SDS_P1;SDS_P2;PMS_P1;PMS_P2;Temp;Humidity;BMP_temperature;BMP_pressure;BME280_temperature;BME280_humidity;BME280_pressure;Samples;Min_cycle;Max_cycle;Signal;HPM_P1;HPM_P2
2022/11/17 00:00:23;;;;;;;;;;;16.50;98.00;;;;;;5058145;28;20257;-92
2022/11/17 00:02:51;;;;;;;;;;;16.50;98.00;;;;;;5058095;28;19913;-92
2022/11/17 00:05:20;;;;;;;;;;;16.40;98.00;;;;;;5058707;28;19909;-92
2022/11/17 00:07:50;;;;;;;;;;;16.50;98.00;;;;;;5059256;28;20192;-92
2022/11/17 00:10:16;;;;;;;;;;;16.50;98.00;;;;;;5059365;28;19916;-92
2022/11/17 00:15:28;;;;;;;;;;;16.50;98.00;;;;;;5077916;28;19919;-92
2022/11/17 00:23:24;;;;;;;;;;;16.40;98.00;;;;;;5084961;28;19977;-93
2022/11/17 00:25:50;;;;;;;;;;;16.40;98.00;;;;;;5068898;28;19908;-93
2022/11/17 00:28:15;;;;;;;;;;;16.40;98.00;;;;;;5073426;28;19938;-93
2022/11/17 00:36:17;;;;;;;;;;;16.40;98.10;;;;;;5086865;28;20051;-92
2022/11/17 00:38:42;;;;;;;;;;;16.40;98.10;;;;;;5068279;28;19971;-92
2022/11/17 00:41:11;;;;;;;;;;;16.40;98.10;;;;;;5067878;28;19974;-93
2022/11/17 00:43:43;;;;;;;;;;;16.40;98.10;;;;;;5068282;28;19908;-93
2022/11/17 00:46:09;;;;;;;;;;;16.40;98.10;;;;;;5069541;28;19964;-93
2022/11/17 00:48:34;;;;;;;;;;;16.40;98.10;;;;;;5071698;28;19913;-93
2022/11/17 00:51:05;;;;;;;;;;;16.40;98.20;;;;;;5070810;28;19999;-92
2022/11/17 00:53:31;;;;;;;;;;;16.40;98.20;;;;;;5069966;28;19909;-91
2022/11/17 00:55:56;;;;;;;;;;;16.30;98.20;;;;;;5071482;28;19937;-93
2022/11/17 00:58:22;;;;;;;;;;;16.30;98.20;;;;;;5069006;28;19917;-93
2022/11/17 01:00:48;;;;;;;;;;;16.30;98.20;;;;;;5066333;28;19909;-93
2022/11/17 01:03:14;;;;;;;;;;;16.30;98.30;;;;;;5069326;28;19909;-93
2022/11/17 01:05:39;;;;;;;;;;;16.30;98.30;;;;;;5064417;28;19908;-93
2022/11/17 01:08:08;;;;;;;;;;;16.30;98.30;;;;;;5061145;28;20274;-92
2022/11/17 01:10:34;;;;;;;;;;;16.30;98.30;;;;;;5061262;28;20258;-93
2022/11/17 01:13:02;;;;;;;;;;;16.30;98.30;;;;;;5063188;28;19908;-93
2022/11/17 01:15:31;;;;;;;;;;;16.30;98.30;;;;;;5063969;28;19982;-93
2022/11/17 01:17:59;;;;;;;;;;;16.30;98.40;;;;;;5062629;28;20003;-93
2022/11/17 01:20:28;;;;;;;;;;;16.30;98.40;;;;;;5066562;28;19923;-92
2022/11/17 01:23:01;;;;;;;;;;;16.30;98.30;;;;;;5076708;28;19920;-93
2022/11/17 01:25:26;;;;;;;;;;;16.30;98.30;;;;;;5069397;28;19969;-92
2022/11/17 01:27:52;;;;;;;;;;;16.30;98.30;;;;;;5078376;28;19924;-93
2022/11/17 01:30:20;;;;;;;;;;;16.30;98.30;;;;;;5067880;28;19909;-92
2022/11/17 01:32:50;;;;;;;;;;;16.30;98.30;;;;;;5065237;28;20183;-93
2022/11/17 01:35:16;;;;;;;;;;;16.30;98.40;;;;;;5064546;28;19916;-92
2022/11/17 01:37:41;;;;;;;;;;;16.30;98.40;;;;;;5062362;28;19977;-91
2022/11/17 01:40:08;;;;;;;;;;;16.30;98.40;;;;;;5063402;28;20076;-92
2022/11/17 01:42:37;;;;;;;;;;;16.20;98.40;;;;;;5063667;28;19934;-92
2022/11/17 01:45:12;;;;;;;;;;;16.30;98.40;;;;;;5061331;28;20303;-93
2022/11/17 01:47:42;;;;;;;;;;;16.20;98.60;;;;;;5065744;28;19920;-91
2022/11/17 01:50:29;;;;;;;;;;;16.20;98.40;;;;;;5067028;28;19909;-91
2022/11/17 01:53:02;;;;;;;;;;;16.20;98.40;;;;;;5067877;28;19908;-92
2022/11/17 01:55:44;;;;;;;;;;;16.20;98.40;;;;;;5068027;28;19908;-92
2022/11/17 01:58:40;;;;;;;;;;;16.20;98.40;;;;;;5065113;28;19952;-93
2022/11/17 02:01:08;;;;;;;;;;;16.20;98.40;;;;;;5061634;28;20281;-93
2022/11/17 02:03:36;;;;;;;;;;;16.20;98.40;;;;;;5070475;28;19908;-92
2022/11/17 02:06:07;;;;;;;;;;;16.20;98.40;;;;;;5070565;28;19935;-91
2022/11/17 02:08:39;;;;;;;;;;;16.20;98.40;;;;;;5070689;28;20011;-94
2022/11/17 02:11:09;;;;;;;;;;;16.20;98.50;;;;;;5074542;28;20274;-93
2022/11/17 02:13:34;;;;;;;;;;;16.20;98.50;;;;;;5072553;28;19927;-94
2022/11/17 02:16:00;;;;;;;;;;;16.20;98.50;;;;;;5074718;28;19935;-92
2022/11/17 02:18:38;;;;;;;;;;;16.20;98.50;;;;;;5069534;28;19985;-92
2022/11/17 02:21:22;;;;;;;;;;;16.20;98.60;;;;;;5074997;28;19896;-94
2022/11/17 02:24:06;;;;;;;;;;;16.20;98.60;;;;;;5077180;28;19976;-93
2022/11/17 02:26:35;;;;;;;;;;;16.20;98.60;;;;;;5076208;28;19912;-93
2022/11/17 02:29:20;;;;;;;;;;;16.20;98.60;;;;;;5075364;28;19908;-93
2022/11/17 02:31:45;;;;;;;;;;;16.20;98.60;;;;;;5070562;28;19908;-92
2022/11/17 02:34:29;;;;;;;;;;;16.10;98.60;;;;;;5068511;28;19923;-91
2022/11/17 02:37:15;;;;;;;;;;;16.20;98.60;;;;;;5068576;28;19919;-92
2022/11/17 02:39:52;;;;;;;;;;;16.10;98.60;;;;;;5047779;28;19908;-91
2022/11/17 02:42:18;;;;;;;;;;;16.10;98.60;;;;;;5073470;28;19940;-93
2022/11/17 02:44:47;;;;;;;;;;;16.10;98.60;;;;;;5074654;28;19912;-93
2022/11/17 02:47:39;;;;;;;;;;;16.10;98.60;;;;;;5074256;28;19928;-92
2022/11/17 02:50:12;;;;;;;;;;;16.10;98.60;;;;;;5064099;28;19908;-93
2022/11/17 02:52:40;;;;;;;;;;;16.10;98.60;;;;;;5082220;28;19901;-93
2022/11/17 02:55:07;;;;;;;;;;;16.10;98.60;;;;;;5081108;28;19897;-93
2022/11/17 02:57:38;;;;;;;;;;;16.10;98.70;;;;;;5080678;28;19932;-94
2022/11/17 03:00:26;;;;;;;;;;;16.10;98.70;;;;;;5078328;28;19915;-93
2022/11/17 03:03:15;;;;;;;;;;;16.10;98.70;;;;;;5074709;28;19961;-93
2022/11/17 03:05:50;;;;;;;;;;;16.10;98.70;;;;;;5070201;28;19908;-93
2022/11/17 03:08:34;;;;;;;;;;;16.10;98.70;;;;;;5076492;28;19916;-92
2022/11/17 03:11:08;;;;;;;;;;;16.10;98.70;;;;;;5079285;28;19909;-92
2022/11/17 03:13:41;;;;;;;;;;;16.10;98.70;;;;;;5073730;28;19919;-93
2022/11/17 03:16:16;;;;;;;;;;;16.10;98.70;;;;;;5071586;28;19987;-92
2022/11/17 03:18:46;;;;;;;;;;;16.10;98.80;;;;;;5071109;28;20002;-92
2022/11/17 03:21:25;;;;;;;;;;;16.10;98.70;;;;;;5069787;28;19908;-92
2022/11/17 03:23:55;;;;;;;;;;;16.10;98.80;;;;;;5069137;28;19909;-92
2022/11/17 03:26:30;;;;;;;;;;;16.10;98.80;;;;;;5067494;28;19995;-92
2022/11/17 03:28:59;;;;;;;;;;;16.10;98.80;;;;;;5069900;28;19942;-92
2022/11/17 03:31:26;;;;;;;;;;;16.10;98.80;;;;;;5069541;28;19935;-93
2022/11/17 03:33:58;;;;;;;;;;;16.10;98.80;;;;;;5071445;28;19915;-92
2022/11/17 03:36:31;;;;;;;;;;;16.10;98.80;;;;;;5076178;28;19908;-92
2022/11/17 03:39:16;;;;;;;;;;;16.10;98.80;;;;;;5072922;28;19908;-93
2022/11/17 03:41:44;;;;;;;;;;;16.10;98.80;;;;;;5073347;28;19939;-93
2022/11/17 03:44:11;;;;;;;;;;;16.00;98.70;;;;;;5073062;28;19916;-92
2022/11/17 03:46:37;;;;;;;;;;;16.10;98.80;;;;;;5067120;28;19959;-92
2022/11/17 03:49:20;;;;;;;;;;;16.10;98.80;;;;;;5068884;28;19908;-91
2022/11/17 03:51:47;;;;;;;;;;;16.00;98.70;;;;;;5073381;28;19893;-93
2022/11/17 03:54:13;;;;;;;;;;;16.00;98.70;;;;;;5074897;28;19935;-93
2022/11/17 03:56:42;;;;;;;;;;;16.00;98.70;;;;;;5073905;28;19923;-92
2022/11/17 03:59:10;;;;;;;;;;;16.00;98.70;;;;;;5072766;28;19919;-92
2022/11/17 04:01:40;;;;;;;;;;;16.00;98.80;;;;;;5066917;28;19913;-92
2022/11/17 04:04:08;;;;;;;;;;;16.00;98.80;;;;;;5070519;28;20186;-92
2022/11/17 04:06:34;;;;;;;;;;;16.00;98.80;;;;;;5069549;28;19976;-92
2022/11/17 04:08:59;;;;;;;;;;;16.00;98.80;;;;;;5066066;28;19956;-91
2022/11/17 04:17:02;;;;;;;;;;;16.00;98.80;;;;;;5087710;28;19922;-92
2022/11/17 04:19:27;;;;;;;;;;;16.00;98.80;;;;;;5074351;28;19908;-93
2022/11/17 04:21:53;;;;;;;;;;;16.00;98.80;;;;;;5071193;28;19919;-92
2022/11/17 04:24:18;;;;;;;;;;;16.00;98.90;;;;;;5068865;28;19912;-92
2022/11/17 04:29:33;;;;;;;;;;;16.00;98.90;;;;;;5092401;28;20408;-93
2022/11/17 04:31:59;;;;;;;;;;;16.00;98.80;;;;;;5071023;28;19952;-93
2022/11/17 04:34:25;;;;;;;;;;;16.10;98.80;;;;;;5069657;28;19909;-91
2022/11/17 04:36:51;;;;;;;;;;;16.20;98.60;;;;;;5067728;28;19919;-92
2022/11/17 04:39:17;;;;;;;;;;;16.20;98.40;;;;;;5064083;28;19965;-92
2022/11/17 04:42:03;;;;;;;;;;;16.30;98.20;;;;;;5061061;28;19920;-92
2022/11/17 04:44:33;;;;;;;;;;;16.40;98.00;;;;;;5061417;28;19915;-92
2022/11/17 04:47:01;;;;;;;;;;;16.50;97.70;;;;;;5060644;28;19991;-92
2022/11/17 04:49:28;;;;;;;;;;;16.60;97.50;;;;;;5061321;28;19916;-92
2022/11/17 04:51:55;;;;;;;;;;;16.60;97.30;;;;;;5059127;28;20378;-92
2022/11/17 04:54:28;;;;;;;;;;;16.70;97.20;;;;;;5058966;28;19994;-92
2022/11/17 04:56:54;;;;;;;;;;;16.70;97.00;;;;;;5060047;28;19974;-92
2022/11/17 04:59:26;;;;;;;;;;;16.80;96.90;;;;;;5058643;28;19909;-92
2022/11/17 05:01:51;;;;;;;;;;;16.80;96.80;;;;;;5060854;28;19994;-92
2022/11/17 05:07:05;;;;;;;;;;;16.80;96.60;;;;;;5079044;28;19916;-92
2022/11/17 05:09:30;;;;;;;;;;;16.80;96.60;;;;;;5059792;28;19942;-91
2022/11/17 05:14:40;;;;;;;;;;;16.80;96.60;;;;;;5077434;28;19919;-93
2022/11/17 05:17:08;;;;;;;;;;;16.80;96.60;;;;;;5057687;28;19912;-93
2022/11/17 05:19:44;;;;;;;;;;;16.70;96.60;;;;;;5058013;28;20182;-92
2022/11/17 05:24:55;;;;;;;;;;;16.70;96.70;;;;;;5075751;28;20382;-93
2022/11/17 05:27:24;;;;;;;;;;;16.70;96.70;;;;;;5059934;28;19962;-92
2022/11/17 05:29:50;;;;;;;;;;;16.70;96.80;;;;;;5059005;28;20437;-92
2022/11/17 05:32:18;;;;;;;;;;;16.60;96.80;;;;;;5057245;28;19912;-92
2022/11/17 05:34:44;;;;;;;;;;;16.60;96.90;;;;;;5058930;28;19912;-93
2022/11/17 05:37:12;;;;;;;;;;;16.60;96.90;;;;;;5057521;28;19912;-92
2022/11/17 05:39:38;;;;;;;;;;;16.60;97.00;;;;;;5054016;28;20260;-92
2022/11/17 05:42:04;;;;;;;;;;;16.50;97.00;;;;;;5057312;28;20333;-93
2022/11/17 05:44:29;;;;;;;;;;;16.50;97.00;;;;;;5057169;28;20172;-92
2022/11/17 05:46:55;;;;;;;;;;;16.50;97.10;;;;;;5052901;28;19908;-92
2022/11/17 05:49:21;;;;;;;;;;;16.50;97.20;;;;;;5058287;28;19999;-92
2022/11/17 05:51:47;;;;;;;;;;;16.50;97.20;;;;;;5053804;28;19912;-92
2022/11/17 05:54:13;;;;;;;;;;;16.40;97.20;;;;;;5057752;28;20124;-92
2022/11/17 05:56:42;;;;;;;;;;;16.40;97.30;;;;;;5055939;28;19920;-92
2022/11/17 05:59:26;;;;;;;;;;;16.40;97.40;;;;;;5065387;28;19955;-93
2022/11/17 06:01:58;;;;;;;;;;;16.40;97.40;;;;;;5077790;28;19908;-93
2022/11/17 06:04:24;;;;;;;;;;;16.40;97.50;;;;;;5073746;28;19974;-93
2022/11/17 06:06:57;;;;;;;;;;;16.40;97.60;;;;;;5066792;28;20022;-92
2022/11/17 06:09:23;;;;;;;;;;;16.40;97.80;;;;;;5062244;28;20185;-91
2022/11/17 06:11:51;;;;;;;;;;;16.40;97.90;;;;;;5061597;28;19912;-93
2022/11/17 06:14:17;;;;;;;;;;;16.40;98.10;;;;;;5066273;28;19909;-93
2022/11/17 06:16:45;;;;;;;;;;;16.40;98.30;;;;;;5076144;28;20141;-93
2022/11/17 06:19:21;;;;;;;;;;;16.40;98.40;;;;;;5067295;28;19980;-92
2022/11/17 06:21:47;;;;;;;;;;;16.40;98.50;;;;;;5062174;28;19976;-93
2022/11/17 06:24:13;;;;;;;;;;;16.40;98.60;;;;;;5063146;28;20099;-92
2022/11/17 06:26:39;;;;;;;;;;;16.40;98.70;;;;;;5063187;28;19908;-92
2022/11/17 06:29:05;;;;;;;;;;;16.40;98.80;;;;;;5061940;28;19942;-92
2022/11/17 06:31:34;;;;;;;;;;;16.40;98.80;;;;;;5061491;28;19929;-92
2022/11/17 06:34:01;;;;;;;;;;;16.40;98.90;;;;;;5061046;28;20277;-92
2022/11/17 06:36:27;;;;;;;;;;;16.40;99.00;;;;;;5063369;28;19921;-92
2022/11/17 06:38:53;;;;;;;;;;;16.40;99.00;;;;;;5065251;28;20281;-91
2022/11/17 06:41:21;;;;;;;;;;;16.40;99.10;;;;;;5067738;28;19909;-92
2022/11/17 06:43:47;;;;;;;;;;;16.40;99.10;;;;;;5065633;28;19908;-92
2022/11/17 06:46:13;;;;;;;;;;;16.40;99.10;;;;;;5063136;28;20243;-92
2022/11/17 06:48:41;;;;;;;;;;;16.50;99.20;;;;;;5061527;28;19909;-92
2022/11/17 06:51:07;;;;;;;;;;;16.50;99.30;;;;;;5064868;28;20178;-92
2022/11/17 06:53:33;;;;;;;;;;;16.50;99.20;;;;;;5063831;28;19909;-91
2022/11/17 06:56:08;;;;;;;;;;;16.50;99.30;;;;;;5057431;28;19908;-91
2022/11/17 06:58:35;;;;;;;;;;;16.50;99.30;;;;;;5074173;28;19963;-92
2022/11/17 07:01:02;;;;;;;;;;;16.50;99.60;;;;;;5053177;28;19908;-91
2022/11/17 07:03:28;;;;;;;;;;;16.50;99.30;;;;;;5054892;28;19968;-91
2022/11/17 07:05:57;;;;;;;;;;;16.50;99.40;;;;;;5054569;28;20003;-90
2022/11/17 07:08:23;;;;;;;;;;;16.60;99.50;;;;;;5054446;28;19987;-92
2022/11/17 07:10:53;;;;;;;;;;;16.60;99.40;;;;;;5055402;28;20015;-90
2022/11/17 07:13:23;;;;;;;;;;;16.50;99.40;;;;;;5058544;28;19975;-92
2022/11/17 07:15:50;;;;;;;;;;;16.50;99.50;;;;;;5061501;28;19987;-92
2022/11/17 07:18:17;;;;;;;;;;;16.50;99.50;;;;;;5082897;28;20071;-92
2022/11/17 07:20:43;;;;;;;;;;;16.50;99.50;;;;;;5062473;28;19970;-92
2022/11/17 07:23:08;;;;;;;;;;;16.50;99.50;;;;;;5063734;28;19979;-91
2022/11/17 07:25:35;;;;;;;;;;;16.50;99.60;;;;;;5065820;28;19958;-91
2022/11/17 07:28:04;;;;;;;;;;;16.50;99.60;;;;;;5065395;28;19919;-92
2022/11/17 07:30:30;;;;;;;;;;;16.50;99.60;;;;;;5066023;28;19908;-92
2022/11/17 07:32:59;;;;;;;;;;;16.50;99.60;;;;;;5068717;28;20008;-92
2022/11/17 07:35:25;;;;;;;;;;;16.50;99.60;;;;;;5064224;28;20078;-91
2022/11/17 07:38:00;;;;;;;;;;;16.50;99.60;;;;;;5066298;28;20007;-92
2022/11/17 07:40:29;;;;;;;;;;;16.50;99.60;;;;;;5067492;28;20092;-92
2022/11/17 07:42:55;;;;;;;;;;;16.50;99.70;;;;;;5066461;28;19939;-91
2022/11/17 07:45:23;;;;;;;;;;;16.50;99.70;;;;;;5062668;28;20194;-93
2022/11/17 07:47:56;;;;;;;;;;;16.40;99.60;;;;;;5067681;28;20292;-91
2022/11/17 07:50:28;;;;;;;;;;;16.40;99.60;;;;;;5066808;28;20367;-92
2022/11/17 07:52:57;;;;;;;;;;;16.40;99.60;;;;;;5065425;28;20025;-91
2022/11/17 07:55:23;;;;;;;;;;;16.40;99.60;;;;;;5066278;28;19909;-92
2022/11/17 07:58:02;;;;;;;;;;;16.40;99.50;;;;;;5068826;28;19955;-92
2022/11/17 08:00:30;;;;;;;;;;;16.40;99.50;;;;;;5064103;28;19964;-92
2022/11/17 08:03:05;;;;;;;;;;;16.40;99.50;;;;;;5066829;28;19912;-92
2022/11/17 08:05:34;;;;;;;;;;;16.40;99.50;;;;;;5069520;28;20250;-92
2022/11/17 08:08:00;;;;;;;;;;;16.40;99.40;;;;;;5065226;28;19909;-92
2022/11/17 08:10:30;;;;;;;;;;;16.50;99.40;;;;;;5065068;28;19942;-91
2022/11/17 08:13:01;;;;;;;;;;;16.50;99.30;;;;;;5068039;28;19896;-91
2022/11/17 08:15:27;;;;;;;;;;;16.50;99.30;;;;;;5063486;28;19919;-93
2022/11/17 08:17:57;;;;;;;;;;;16.50;99.20;;;;;;5062092;28;19912;-92
2022/11/17 08:20:27;;;;;;;;;;;16.50;99.20;;;;;;5062770;28;20301;-92
2022/11/17 08:22:56;;;;;;;;;;;16.50;99.20;;;;;;5063244;28;19909;-92
2022/11/17 08:25:23;;;;;;;;;;;16.50;99.20;;;;;;5063653;28;19912;-91
2022/11/17 08:27:50;;;;;;;;;;;16.50;99.10;;;;;;5066112;28;19931;-93
2022/11/17 08:30:17;;;;;;;;;;;16.50;99.10;;;;;;5065308;28;19964;-92
2022/11/17 08:32:48;;;;;;;;;;;16.50;99.20;;;;;;5068718;28;19919;-92
2022/11/17 08:35:13;;;;;;;;;;;16.40;99.10;;;;;;5065446;28;20194;-91
2022/11/17 08:37:39;;;;;;;;;;;16.40;99.10;;;;;;5064118;28;19924;-92
2022/11/17 08:40:05;;;;;;;;;;;16.40;99.10;;;;;;5066629;28;20011;-92
2022/11/17 08:42:31;;;;;;;;;;;16.40;99.10;;;;;;5066754;28;19909;-92
2022/11/17 08:44:56;;;;;;;;;;;16.40;99.10;;;;;;5070060;28;20057;-92
2022/11/17 08:47:25;;;;;;;;;;;16.40;99.10;;;;;;5065779;28;19908;-93
2022/11/17 08:49:50;;;;;;;;;;;16.40;99.10;;;;;;5065255;28;20098;-92
2022/11/17 08:52:18;;;;;;;;;;;16.40;99.20;;;;;;5067424;28;20210;-93
2022/11/17 08:54:43;;;;;;;;;;;16.40;99.10;;;;;;5065559;28;19931;-92
2022/11/17 08:57:23;;;;;;;;;;;16.40;99.10;;;;;;5069000;28;19912;-92
2022/11/17 08:59:49;;;;;;;;;;;16.50;99.10;;;;;;5070173;28;20133;-92
2022/11/17 09:02:14;;;;;;;;;;;16.50;99.00;;;;;;5066194;28;19974;-92
2022/11/17 09:04:41;;;;;;;;;;;16.60;98.90;;;;;;5069608;28;19920;-92
2022/11/17 09:07:12;;;;;;;;;;;16.60;98.70;;;;;;5069541;28;19896;-92
2022/11/17 09:09:37;;;;;;;;;;;16.70;98.70;;;;;;5069798;28;19908;-92
2022/11/17 09:12:03;;;;;;;;;;;16.80;98.50;;;;;;5069041;28;20019;-92
2022/11/17 09:14:30;;;;;;;;;;;16.90;98.40;;;;;;5071456;28;19920;-92
2022/11/17 09:16:57;;;;;;;;;;;16.90;98.20;;;;;;5071867;28;19913;-92
2022/11/17 09:19:22;;;;;;;;;;;17.00;98.10;;;;;;5070353;28;19909;-92
2022/11/17 09:21:48;;;;;;;;;;;17.00;97.90;;;;;;5074858;28;19966;-92
2022/11/17 09:24:16;;;;;;;;;;;17.10;97.80;;;;;;5071199;28;20144;-92
2022/11/17 09:26:43;;;;;;;;;;;17.10;97.70;;;;;;5065703;28;19908;-92
2022/11/17 09:29:12;;;;;;;;;;;17.20;97.60;;;;;;5072362;28;19908;-93
2022/11/17 09:31:40;;;;;;;;;;;17.30;97.40;;;;;;5066655;28;19940;-91
2022/11/17 09:34:09;;;;;;;;;;;17.30;97.20;;;;;;5058981;28;19935;-92
2022/11/17 09:36:35;;;;;;;;;;;17.30;97.10;;;;;;5059358;28;19928;-92
2022/11/17 09:39:03;;;;;;;;;;;17.30;97.00;;;;;;5060420;28;19983;-92
2022/11/17 09:41:35;;;;;;;;;;;17.30;97.00;;;;;;5061065;28;19920;-92
2022/11/17 09:44:14;;;;;;;;;;;17.40;96.90;;;;;;5062524;28;20036;-92
2022/11/17 09:46:52;;;;;;;;;;;17.50;96.70;;;;;;5058934;28;19916;-91
2022/11/17 09:49:27;;;;;;;;;;;17.50;96.50;;;;;;5063533;28;19909;-92
2022/11/17 09:51:55;;;;;;;;;;;17.50;96.40;;;;;;5070095;28;19908;-92
2022/11/17 09:54:28;;;;;;;;;;;17.50;96.50;;;;;;5067009;28;19920;-92
2022/11/17 09:56:55;;;;;;;;;;;17.50;96.50;;;;;;5068892;28;19913;-92
2022/11/17 09:59:22;;;;;;;;;;;17.50;96.60;;;;;;5061072;28;20209;-92
2022/11/17 10:01:48;;;;;;;;;;;17.40;96.60;;;;;;5064482;28;19908;-92
2022/11/17 10:04:17;;;;;;;;;;;17.40;96.60;;;;;;5062276;28;19979;-92
2022/11/17 10:06:45;;;;;;;;;;;17.50;96.40;;;;;;5066823;28;20335;-92
2022/11/17 10:09:15;;;;;;;;;;;17.50;96.40;;;;;;5063499;28;19908;-92
2022/11/17 10:11:41;;;;;;;;;;;17.40;96.50;;;;;;5061989;28;19912;-91
2022/11/17 10:14:06;;;;;;;;;;;17.40;96.50;;;;;;5065792;28;19916;-91
2022/11/17 10:16:35;;;;;;;;;;;17.50;96.50;;;;;;5061374;28;19935;-92
2022/11/17 10:19:10;;;;;;;;;;;17.50;96.40;;;;;;5063336;28;19919;-92
2022/11/17 10:21:36;;;;;;;;;;;17.50;96.40;;;;;;5059847;28;19908;-93
2022/11/17 10:24:02;;;;;;;;;;;17.50;96.40;;;;;;5065506;28;20243;-92
2022/11/17 10:26:31;;;;;;;;;;;17.50;96.40;;;;;;5066160;28;20412;-91
2022/11/17 10:29:06;;;;;;;;;;;17.40;96.50;;;;;;5062329;28;19908;-92
2022/11/17 10:31:39;;;;;;;;;;;17.30;96.70;;;;;;5061644;28;19923;-92
2022/11/17 10:34:05;;;;;;;;;;;17.30;96.80;;;;;;5056625;28;20128;-92
2022/11/17 10:36:31;;;;;;;;;;;17.20;96.90;;;;;;5062747;28;20448;-92
2022/11/17 10:39:00;;;;;;;;;;;17.20;97.10;;;;;;5060504;28;19909;-92
2022/11/17 10:41:35;;;;;;;;;;;17.20;97.10;;;;;;5064479;28;19931;-92
2022/11/17 10:44:03;;;;;;;;;;;17.20;97.20;;;;;;5068650;28;20197;-92
2022/11/17 10:46:32;;;;;;;;;;;17.20;97.20;;;;;;5061749;28;20095;-91
2022/11/17 10:49:03;;;;;;;;;;;17.10;97.20;;;;;;5059641;28;20144;-91
2022/11/17 10:51:34;;;;;;;;;;;17.20;97.20;;;;;;5060118;28;20140;-92
2022/11/17 10:54:15;;;;;;;;;;;17.30;97.10;;;;;;5064277;28;19935;-92
2022/11/17 10:56:45;;;;;;;;;;;17.30;96.90;;;;;;5062805;28;19916;-92
2022/11/17 10:59:14;;;;;;;;;;;17.30;96.90;;;;;;5059199;28;20269;-91
2022/11/17 11:01:40;;;;;;;;;;;17.30;96.90;;;;;;5054878;28;19916;-92
2022/11/17 11:04:26;;;;;;;;;;;17.30;96.90;;;;;;5053618;28;20020;-91
2022/11/17 11:07:11;;;;;;;;;;;17.30;96.90;;;;;;5055081;28;19915;-91
2022/11/17 11:09:57;;;;;;;;;;;17.30;96.90;;;;;;5070173;28;19912;-92
2022/11/17 11:12:38;;;;;;;;;;;17.30;96.90;;;;;;5047865;28;19916;-92
2022/11/17 11:15:04;;;;;;;;;;;17.20;97.00;;;;;;5053837;28;20141;-92
2022/11/17 11:17:30;;;;;;;;;;;17.20;97.10;;;;;;5051829;28;20055;-92
2022/11/17 11:19:55;;;;;;;;;;;17.30;97.10;;;;;;5053264;28;20367;-91
2022/11/17 11:22:47;;;;;;;;;;;17.30;97.00;;;;;;5055272;28;20237;-92
2022/11/17 11:25:31;;;;;;;;;;;17.30;97.00;;;;;;5036505;28;19908;-91
2022/11/17 11:27:58;;;;;;;;;;;17.30;97.00;;;;;;5052710;28;19935;-91
2022/11/17 11:30:25;;;;;;;;;;;17.20;97.00;;;;;;5054156;28;19952;-91
2022/11/17 11:33:26;;;;;;;;;;;17.20;97.00;;;;;;5052753;28;19912;-91
2022/11/17 11:36:03;;;;;;;;;;;17.20;97.10;;;;;;5012114;28;20011;-91
2022/11/17 11:38:47;;;;;;;;;;;17.20;97.10;;;;;;5049670;28;20237;-91
2022/11/17 11:41:32;;;;;;;;;;;17.20;97.10;;;;;;5054878;28;19920;-92
2022/11/17 11:44:00;;;;;;;;;;;17.20;97.00;;;;;;5055828;28;19909;-92
2022/11/17 11:46:35;;;;;;;;;;;17.30;96.90;;;;;;5055277;28;19909;-92
2022/11/17 11:49:20;;;;;;;;;;;17.30;96.80;;;;;;5053055;28;19912;-92
2022/11/17 11:51:47;;;;;;;;;;;17.40;96.70;;;;;;5054612;28;19908;-92
2022/11/17 11:54:24;;;;;;;;;;;17.30;96.70;;;;;;5052522;28;19920;-92
2022/11/17 11:56:50;;;;;;;;;;;17.40;96.70;;;;;;5053014;28;19997;-92
2022/11/17 11:59:19;;;;;;;;;;;17.30;96.70;;;;;;5051158;28;20413;-91
2022/11/17 12:02:00;;;;;;;;;;;17.30;96.70;;;;;;5049906;28;20277;-91
2022/11/17 12:04:32;;;;;;;;;;;17.40;96.70;;;;;;5050418;28;19920;-92
2022/11/17 12:07:03;;;;;;;;;;;17.40;96.70;;;;;;5052289;28;19923;-92
2022/11/17 12:09:39;;;;;;;;;;;17.40;96.80;;;;;;5052055;28;19909;-92
2022/11/17 12:12:12;;;;;;;;;;;17.40;96.80;;;;;;5051987;28;19908;-93
2022/11/17 12:14:37;;;;;;;;;;;17.40;96.90;;;;;;5051386;28;19912;-92
2022/11/17 12:17:05;;;;;;;;;;;17.40;96.90;;;;;;5053048;28;19912;-92
2022/11/17 12:19:54;;;;;;;;;;;17.40;97.00;;;;;;5053437;28;19923;-93
2022/11/17 12:22:28;;;;;;;;;;;17.40;97.00;;;;;;5050200;28;19908;-92
2022/11/17 12:25:12;;;;;;;;;;;17.30;97.10;;;;;;5051954;28;19920;-92
2022/11/17 12:27:38;;;;;;;;;;;17.40;97.10;;;;;;5050050;28;20058;-92
2022/11/17 12:30:05;;;;;;;;;;;17.40;97.10;;;;;;5051665;28;19915;-92
2022/11/17 12:32:43;;;;;;;;;;;17.40;97.00;;;;;;5049971;28;19939;-92
2022/11/17 12:35:26;;;;;;;;;;;17.40;96.90;;;;;;5052064;28;20320;-91
2022/11/17 12:38:11;;;;;;;;;;;17.40;96.90;;;;;;5049580;28;20490;-91
2022/11/17 12:40:36;;;;;;;;;;;17.40;96.80;;;;;;5049863;28;20274;-91
2022/11/17 12:43:14;;;;;;;;;;;17.40;96.80;;;;;;5048588;28;19916;-92
2022/11/17 12:45:52;;;;;;;;;;;17.40;96.90;;;;;;5052921;28;19908;-92
2022/11/17 12:48:25;;;;;;;;;;;17.40;96.90;;;;;;5052717;28;19909;-92
2022/11/17 12:51:06;;;;;;;;;;;17.40;96.90;;;;;;5050887;28;20023;-93
2022/11/17 12:53:50;;;;;;;;;;;17.30;96.90;;;;;;5049299;28;19919;-91
2022/11/17 12:56:16;;;;;;;;;;;17.30;96.90;;;;;;5049497;28;19990;-92
2022/11/17 12:58:47;;;;;;;;;;;17.30;97.00;;;;;;5049587;28;20069;-91
2022/11/17 13:01:19;;;;;;;;;;;17.30;97.10;;;;;;5051107;28;20258;-92
2022/11/17 13:03:56;;;;;;;;;;;17.30;97.20;;;;;;5049457;28;19908;-91
2022/11/17 13:06:22;;;;;;;;;;;17.30;97.30;;;;;;5050569;28;20047;-91
2022/11/17 13:08:55;;;;;;;;;;;17.20;97.30;;;;;;5045821;28;20163;-92
2022/11/17 13:11:21;;;;;;;;;;;17.20;97.40;;;;;;5047971;28;19912;-92
2022/11/17 13:14:05;;;;;;;;;;;17.20;97.50;;;;;;5049295;28;20007;-92
2022/11/17 13:16:30;;;;;;;;;;;17.20;97.50;;;;;;5050617;28;19916;-92
2022/11/17 13:18:56;;;;;;;;;;;17.10;97.60;;;;;;5049963;28;19984;-92
2022/11/17 13:21:24;;;;;;;;;;;17.10;97.60;;;;;;5069547;28;19908;-92
2022/11/17 13:23:53;;;;;;;;;;;17.10;97.70;;;;;;5053576;28;19912;-92
2022/11/17 13:26:23;;;;;;;;;;;17.10;97.70;;;;;;5052075;28;20193;-92
2022/11/17 13:29:10;;;;;;;;;;;17.10;97.80;;;;;;5047413;28;19935;-92
2022/11/17 13:31:42;;;;;;;;;;;17.10;97.90;;;;;;5048896;28;20062;-91
2022/11/17 13:34:20;;;;;;;;;;;17.00;97.90;;;;;;5048242;28;19909;-92
2022/11/17 13:36:58;;;;;;;;;;;17.00;97.90;;;;;;5045096;28;20011;-92
2022/11/17 13:39:26;;;;;;;;;;;17.00;98.00;;;;;;5050294;28;19909;-92
2022/11/17 13:41:51;;;;;;;;;;;17.00;98.10;;;;;;5039004;28;20166;-92
2022/11/17 13:44:20;;;;;;;;;;;17.00;98.10;;;;;;5050033;28;20006;-92
2022/11/17 13:46:46;;;;;;;;;;;17.00;98.10;;;;;;5053130;28;19908;-93
2022/11/17 13:49:30;;;;;;;;;;;17.00;98.20;;;;;;5054235;28;19909;-92
2022/11/17 13:51:56;;;;;;;;;;;17.00;98.20;;;;;;5051435;28;20003;-92
2022/11/17 13:54:21;;;;;;;;;;;17.00;98.20;;;;;;5051426;28;20050;-92
2022/11/17 13:56:52;;;;;;;;;;;17.00;98.30;;;;;;5051145;28;19951;-93
2022/11/17 13:59:25;;;;;;;;;;;17.00;98.30;;;;;;5052473;28;19909;-92
2022/11/17 14:02:10;;;;;;;;;;;16.90;98.30;;;;;;5048245;28;20140;-92
2022/11/17 14:04:35;;;;;;;;;;;16.90;98.40;;;;;;5046637;28;19970;-92
2022/11/17 14:07:04;;;;;;;;;;;16.90;98.40;;;;;;5049206;28;19916;-92
2022/11/17 14:09:33;;;;;;;;;;;16.90;98.40;;;;;;5050589;28;19908;-92
2022/11/17 14:12:00;;;;;;;;;;;16.90;98.40;;;;;;5062608;28;19951;-92
2022/11/17 14:14:28;;;;;;;;;;;16.90;98.40;;;;;;5072034;28;19916;-92
2022/11/17 14:17:07;;;;;;;;;;;16.90;98.40;;;;;;5073253;28;19916;-92
2022/11/17 14:19:32;;;;;;;;;;;16.90;98.40;;;;;;5072434;28;19917;-92
2022/11/17 14:22:02;;;;;;;;;;;16.90;98.40;;;;;;5073936;28;20396;-92
2022/11/17 14:24:28;;;;;;;;;;;17.00;98.40;;;;;;5071113;28;20007;-91
2022/11/17 14:26:53;;;;;;;;;;;17.00;98.30;;;;;;5054330;28;19991;-92
2022/11/17 14:29:22;;;;;;;;;;;17.00;98.30;;;;;;5055166;28;20058;-92
2022/11/17 14:31:50;;;;;;;;;;;17.00;98.30;;;;;;5071736;28;19915;-92
2022/11/17 14:34:16;;;;;;;;;;;17.00;98.20;;;;;;5070566;28;20482;-92
2022/11/17 14:36:42;;;;;;;;;;;17.10;98.30;;;;;;5073811;28;19948;-92
2022/11/17 14:39:17;;;;;;;;;;;17.10;98.20;;;;;;5075512;28;20174;-92
2022/11/17 14:41:43;;;;;;;;;;;17.10;98.20;;;;;;5071925;28;19908;-92
2022/11/17 14:44:09;;;;;;;;;;;17.10;98.10;;;;;;5068668;28;19983;-92
2022/11/17 14:46:35;;;;;;;;;;;17.10;98.10;;;;;;5035085;28;20211;-92
2022/11/17 14:49:00;;;;;;;;;;;17.10;98.10;;;;;;5044731;28;20311;-92
2022/11/17 14:51:26;;;;;;;;;;;17.10;98.40;;;;;;5058525;28;19919;-92
2022/11/17 14:53:53;;;;;;;;;;;17.10;98.10;;;;;;5052074;28;19908;-92
2022/11/17 14:56:20;;;;;;;;;;;17.10;98.20;;;;;;5047116;28;20159;-92
2022/11/17 14:58:52;;;;;;;;;;;17.00;98.10;;;;;;5051280;28;19913;-92
2022/11/17 15:01:24;;;;;;;;;;;17.00;98.10;;;;;;5065026;28;19916;-92
2022/11/17 15:03:55;;;;;;;;;;;17.00;98.20;;;;;;5068259;28;19920;-92